createdAt,value
2017-12-13T00:02:20.695Z,66.67
2017-12-13T00:04:47.047Z,66.79
2017-12-13T00:07:13.408Z,67.02
2017-12-13T00:09:39.809Z,67.33
2017-12-13T00:12:06.173Z,68.05
2017-12-13T00:14:32.660Z,66.75
2017-12-13T00:16:59.279Z,66.66
2017-12-13T00:19:25.616Z,67.04
2017-12-13T00:21:51.928Z,67.20
2017-12-13T00:24:18.298Z,66.95
2017-12-13T00:26:44.625Z,66.62
2017-12-13T00:29:10.949Z,67.03
2017-12-13T00:31:37.304Z,67.40
2017-12-13T00:34:03.718Z,67.69
2017-12-13T00:36:30.085Z,67.67
2017-12-13T00:38:56.539Z,67.29
2017-12-13T00:41:22.868Z,67.30
2017-12-13T00:43:49.193Z,67.34
2017-12-13T00:46:15.659Z,67.37
2017-12-13T00:48:42.024Z,67.31
2017-12-13T00:51:08.351Z,67.77
2017-12-13T00:53:34.752Z,67.17
2017-12-13T00:56:01.182Z,66.65
2017-12-13T00:58:27.550Z,66.79
2017-12-13T01:00:53.924Z,67.03
2017-12-13T01:03:20.300Z,67.46
2017-12-13T01:05:46.675Z,67.50
2017-12-13T01:08:13.080Z,67.40
2017-12-13T01:10:39.452Z,67.60
2017-12-13T01:13:05.795Z,67.64
2017-12-13T01:15:32.175Z,67.62
2017-12-13T01:17:58.509Z,67.45
2017-12-13T01:20:24.934Z,67.70
2017-12-13T01:22:51.312Z,67.70
2017-12-13T01:25:17.628Z,67.09
2017-12-13T01:27:43.980Z,66.89
2017-12-13T01:30:10.585Z,67.35
2017-12-13T01:32:36.977Z,67.65
2017-12-13T01:35:03.316Z,67.92
2017-12-13T01:37:29.707Z,67.91
2017-12-13T01:39:56.036Z,68.22
2017-12-13T01:42:22.372Z,67.73
2017-12-13T01:44:48.765Z,67.63
2017-12-13T01:47:15.092Z,67.90
2017-12-13T01:49:41.464Z,67.16
2017-12-13T01:52:07.850Z,67.33
2017-12-13T01:54:34.192Z,67.63
2017-12-13T01:57:00.585Z,67.59
2017-12-13T01:59:27.032Z,67.88
2017-12-13T02:01:53.449Z,68.12
2017-12-13T02:04:19.883Z,68.24
2017-12-13T02:06:46.315Z,68.30
2017-12-13T02:09:12.774Z,68.04
2017-12-13T02:11:39.285Z,67.89
2017-12-13T02:14:05.736Z,67.81
2017-12-13T02:16:32.079Z,67.71
2017-12-13T02:18:58.443Z,67.77
2017-12-13T02:21:24.851Z,68.09
2017-12-13T02:23:51.246Z,68.35
2017-12-13T02:26:17.596Z,68.37
2017-12-13T02:28:43.983Z,68.31
2017-12-13T02:31:10.309Z,68.23
2017-12-13T02:33:36.632Z,68.20
2017-12-13T02:36:03.020Z,68.13
2017-12-13T02:38:29.399Z,67.97
2017-12-13T02:41:00.743Z,68.07
2017-12-13T02:43:27.128Z,68.34
2017-12-13T02:45:53.463Z,68.37
2017-12-13T02:48:19.778Z,68.19
2017-12-13T02:50:46.280Z,68.73
2017-12-13T02:53:12.724Z,67.86
2017-12-13T02:55:39.288Z,67.39
2017-12-13T02:58:05.819Z,67.78
2017-12-13T03:00:32.237Z,67.99
2017-12-13T03:02:58.624Z,67.86
2017-12-13T03:05:25.092Z,67.85
2017-12-13T03:07:51.502Z,67.61
2017-12-13T03:10:17.912Z,68.00
2017-12-13T03:12:44.327Z,68.43
2017-12-13T03:15:10.737Z,68.59
2017-12-13T03:17:37.300Z,68.46
2017-12-13T03:20:03.748Z,68.62
2017-12-13T03:22:30.180Z,68.69
2017-12-13T03:24:56.539Z,68.72
2017-12-13T03:27:22.916Z,68.47
2017-12-13T03:29:49.244Z,68.34
2017-12-13T03:32:15.600Z,68.46
2017-12-13T03:34:41.984Z,68.30
2017-12-13T03:37:08.347Z,67.91
2017-12-13T03:39:34.693Z,68.18
2017-12-13T03:42:01.087Z,68.30
2017-12-13T03:44:27.407Z,68.45
2017-12-13T03:46:53.792Z,68.46
2017-12-13T03:49:20.199Z,68.30
2017-12-13T03:51:46.540Z,68.10
2017-12-13T03:54:12.844Z,68.48
2017-12-13T03:56:39.208Z,68.74
2017-12-13T03:59:05.540Z,68.71
2017-12-13T04:01:31.891Z,68.70
2017-12-13T04:03:58.269Z,68.30
2017-12-13T04:06:24.617Z,68.14
2017-12-13T04:08:50.980Z,67.95
2017-12-13T04:11:17.356Z,68.05
2017-12-13T04:13:43.680Z,68.31
2017-12-13T04:16:10.010Z,68.33
2017-12-13T04:18:36.415Z,68.02
2017-12-13T04:21:03.747Z,68.10
2017-12-13T04:23:30.092Z,68.47
2017-12-13T04:25:56.519Z,68.47
2017-12-13T04:28:22.928Z,68.39
2017-12-13T04:30:49.257Z,68.39
2017-12-13T04:33:15.692Z,68.56
2017-12-13T04:35:42.016Z,68.68
2017-12-13T04:38:08.331Z,68.24
2017-12-13T04:40:34.787Z,68.25
2017-12-13T04:43:01.147Z,68.52
2017-12-13T04:45:27.476Z,68.57
2017-12-13T04:47:53.854Z,68.62
2017-12-13T04:50:20.172Z,68.54
2017-12-13T04:52:46.500Z,68.66
2017-12-13T04:55:12.893Z,68.91
2017-12-13T04:57:39.212Z,68.83
2017-12-13T05:00:05.563Z,68.37
2017-12-13T05:02:32.072Z,68.09
2017-12-13T05:04:58.384Z,68.06
2017-12-13T05:07:24.757Z,68.56
2017-12-13T05:09:51.208Z,68.71
2017-12-13T05:12:17.599Z,68.62
2017-12-13T05:14:43.959Z,68.99
2017-12-13T05:17:10.420Z,68.78
2017-12-13T05:19:36.791Z,69.08
2017-12-13T05:22:03.307Z,68.96
2017-12-13T05:24:29.704Z,68.94
2017-12-13T05:26:56.235Z,69.08
2017-12-13T05:29:22.600Z,69.25
2017-12-13T05:31:48.988Z,70.17
2017-12-13T05:34:15.364Z,68.92
2017-12-13T05:36:41.704Z,68.35
2017-12-13T05:39:08.076Z,68.39
2017-12-13T05:41:34.408Z,68.66
2017-12-13T05:44:00.765Z,68.86
2017-12-13T05:46:27.175Z,69.08
2017-12-13T05:48:53.499Z,69.06
2017-12-13T05:51:19.831Z,69.14
2017-12-13T05:53:46.350Z,69.20
2017-12-13T05:56:12.680Z,69.39
2017-12-13T05:58:38.993Z,69.38
2017-12-13T06:01:05.403Z,69.23
2017-12-13T06:03:31.760Z,69.41
2017-12-13T06:05:58.123Z,68.94
2017-12-13T06:08:24.642Z,68.67
2017-12-13T06:10:50.980Z,68.64
2017-12-13T06:13:17.407Z,68.26
2017-12-13T06:15:44.056Z,68.20
2017-12-13T06:18:10.505Z,68.29
2017-12-13T06:20:36.872Z,68.60
2017-12-13T06:23:03.329Z,68.91
2017-12-13T06:25:29.716Z,68.83
2017-12-13T06:27:56.045Z,68.81
2017-12-13T06:30:22.412Z,68.63
2017-12-13T06:32:48.752Z,68.43
2017-12-13T06:35:15.368Z,68.12
2017-12-13T06:37:41.880Z,68.10
2017-12-13T06:40:08.292Z,68.01
2017-12-13T06:42:34.635Z,67.86
2017-12-13T06:45:01.048Z,67.85
2017-12-13T06:47:27.439Z,67.59
2017-12-13T06:49:53.984Z,67.65
2017-12-13T06:52:20.442Z,67.45
2017-12-13T06:54:46.760Z,67.70
2017-12-13T06:57:13.103Z,67.70
2017-12-13T06:59:39.464Z,67.18
2017-12-13T07:02:05.996Z,66.76
2017-12-13T07:04:32.371Z,66.97
2017-12-13T07:06:58.912Z,66.70
2017-12-13T07:09:25.248Z,66.68
2017-12-13T07:11:51.705Z,66.44
2017-12-13T07:14:18.097Z,66.49
2017-12-13T07:16:44.436Z,66.76
2017-12-13T07:19:10.776Z,66.85
2017-12-13T07:21:37.273Z,66.64
2017-12-13T07:24:03.613Z,66.59
2017-12-13T07:26:29.967Z,66.71
2017-12-13T07:28:56.359Z,66.71
2017-12-13T07:31:22.759Z,67.38
2017-12-13T07:33:49.173Z,67.38
2017-12-13T07:36:15.564Z,67.58
2017-12-13T07:38:42.369Z,67.37
2017-12-13T07:41:09.004Z,67.62
2017-12-13T07:43:35.456Z,67.16
2017-12-13T07:46:01.856Z,67.03
2017-12-13T07:48:28.201Z,67.13
2017-12-13T07:50:54.588Z,67.32
2017-12-13T07:53:20.915Z,66.92
2017-12-13T07:55:47.235Z,66.83
2017-12-13T07:58:13.670Z,65.78
2017-12-13T08:00:40.036Z,64.96
2017-12-13T08:03:06.443Z,64.44
2017-12-13T08:05:32.867Z,64.85
2017-12-13T08:07:59.213Z,65.08
2017-12-13T08:10:25.608Z,64.88
2017-12-13T08:12:51.999Z,63.39
2017-12-13T08:15:18.353Z,64.34
2017-12-13T08:17:44.684Z,64.67
2017-12-13T08:20:11.113Z,63.13
2017-12-13T08:22:37.546Z,63.00
2017-12-13T08:25:04.016Z,62.68
2017-12-13T08:27:30.700Z,62.37
2017-12-13T08:29:57.035Z,62.20
2017-12-13T08:32:23.392Z,62.93
2017-12-13T08:34:49.846Z,62.08
2017-12-13T08:37:16.231Z,61.46
2017-12-13T08:39:42.586Z,61.88
2017-12-13T08:42:09.119Z,61.11
2017-12-13T08:44:35.488Z,62.45
2017-12-13T08:47:01.861Z,63.81
2017-12-13T08:49:28.236Z,61.19
2017-12-13T08:51:54.753Z,66.20
2017-12-13T08:54:21.123Z,65.21
2017-12-13T08:56:47.579Z,64.66
2017-12-13T08:59:13.900Z,66.80
2017-12-13T09:01:40.296Z,66.41
2017-12-13T09:04:06.893Z,65.60
2017-12-13T09:06:33.301Z,63.01
2017-12-13T09:08:59.655Z,62.15
2017-12-13T09:11:26.184Z,63.53
2017-12-13T09:13:52.584Z,63.60
2017-12-13T09:16:19.012Z,65.07
2017-12-13T09:18:45.555Z,64.62
2017-12-13T09:21:11.918Z,58.55
2017-12-13T09:23:38.472Z,62.03
2017-12-13T09:26:04.991Z,59.91
2017-12-13T09:28:31.556Z,61.17
2017-12-13T09:30:58.296Z,61.83
2017-12-13T09:33:24.748Z,63.37
2017-12-13T09:35:51.152Z,64.56
2017-12-13T09:38:17.519Z,61.75
2017-12-13T09:40:43.952Z,60.47
2017-12-13T09:43:10.294Z,63.10
2017-12-13T09:45:36.692Z,62.61
2017-12-13T09:48:03.119Z,58.57
2017-12-13T09:50:29.561Z,61.01
2017-12-13T09:52:55.968Z,59.51
2017-12-13T09:55:22.385Z,58.85
2017-12-13T09:57:48.805Z,57.66
2017-12-13T10:00:15.224Z,58.11
2017-12-13T10:02:41.909Z,57.47
2017-12-13T10:05:09.617Z,57.18
2017-12-13T10:07:36.104Z,54.21
2017-12-13T10:10:02.548Z,56.60
2017-12-13T10:12:28.945Z,55.75
2017-12-13T10:14:55.504Z,56.06
2017-12-13T10:17:21.937Z,55.35
2017-12-13T10:19:48.292Z,56.20
2017-12-13T10:22:14.726Z,56.88
2017-12-13T10:24:41.375Z,57.27
2017-12-13T10:27:07.818Z,56.98
2017-12-13T10:29:34.173Z,56.66
2017-12-13T10:32:00.740Z,57.03
2017-12-13T10:34:27.200Z,57.10
2017-12-13T10:36:53.583Z,56.67
2017-12-13T10:39:20.029Z,56.95
2017-12-13T10:41:46.360Z,57.93
2017-12-13T10:44:12.712Z,58.30
2017-12-13T10:46:39.104Z,57.95
2017-12-13T10:49:05.428Z,56.99
2017-12-13T10:51:31.773Z,56.20
2017-12-13T10:53:58.257Z,58.51
2017-12-13T10:56:24.793Z,58.73
2017-12-13T10:58:51.177Z,59.17
2017-12-13T11:01:17.680Z,58.43
2017-12-13T11:03:44.132Z,58.21
2017-12-13T11:06:10.628Z,57.88
2017-12-13T11:08:37.044Z,57.63
2017-12-13T11:11:03.699Z,57.52
2017-12-13T11:13:30.188Z,57.20
2017-12-13T11:15:56.648Z,55.25
2017-12-13T11:18:23.102Z,59.29
2017-12-13T11:20:49.456Z,59.67
2017-12-13T11:23:15.873Z,59.05
2017-12-13T11:25:42.330Z,58.46
2017-12-13T11:28:08.762Z,57.65
2017-12-13T11:30:35.199Z,57.76
2017-12-13T11:33:01.615Z,57.42
2017-12-13T11:35:28.052Z,57.82
2017-12-13T11:37:54.720Z,57.30
2017-12-13T11:40:21.122Z,56.97
2017-12-13T11:42:47.516Z,56.86
2017-12-13T11:45:13.916Z,56.51
2017-12-13T11:47:40.301Z,57.38
2017-12-13T11:50:06.707Z,57.41
2017-12-13T11:52:33.116Z,58.14
2017-12-13T11:54:59.551Z,57.35
2017-12-13T11:57:25.970Z,57.74
2017-12-13T11:59:52.524Z,57.92
2017-12-13T12:02:18.931Z,57.48
2017-12-13T12:04:45.375Z,57.23
2017-12-13T12:07:11.876Z,56.70
2017-12-13T12:09:38.488Z,57.21
2017-12-13T12:12:04.975Z,57.04
2017-12-13T12:14:31.373Z,57.09
2017-12-13T12:16:57.781Z,57.14
2017-12-13T12:19:24.176Z,56.79
2017-12-13T12:21:50.648Z,57.25
2017-12-13T12:24:17.004Z,57.73
2017-12-13T12:26:43.409Z,57.82
2017-12-13T12:29:09.800Z,59.04
2017-12-13T12:31:36.200Z,59.30
2017-12-13T12:34:02.588Z,58.80
2017-12-13T12:36:29.056Z,59.21
2017-12-13T12:38:55.500Z,58.45
2017-12-13T12:41:22.119Z,58.78
2017-12-13T12:43:48.576Z,58.75
2017-12-13T12:46:15.007Z,58.82
2017-12-13T12:48:41.371Z,59.06
2017-12-13T12:51:07.775Z,58.82
2017-12-13T12:53:34.381Z,58.16
2017-12-13T12:56:00.739Z,58.53
2017-12-13T12:58:27.275Z,59.15
2017-12-13T13:00:53.660Z,59.45
2017-12-13T13:03:20.004Z,59.36
2017-12-13T13:05:46.403Z,60.09
2017-12-13T13:08:12.779Z,61.06
2017-12-13T13:10:39.237Z,60.82
2017-12-13T13:13:05.677Z,61.05
2017-12-13T13:15:32.102Z,60.48
2017-12-13T13:17:58.567Z,61.63
2017-12-13T13:20:25.175Z,62.06
2017-12-13T13:22:51.635Z,62.00
2017-12-13T13:25:18.023Z,61.81
2017-12-13T13:27:44.644Z,60.96
2017-12-13T13:30:11.317Z,60.79
2017-12-13T13:32:37.854Z,60.76
2017-12-13T13:35:04.388Z,61.19
2017-12-13T13:37:30.751Z,61.44
2017-12-13T13:39:57.460Z,60.84
2017-12-13T13:42:23.884Z,61.24
2017-12-13T13:44:50.240Z,62.58
2017-12-13T13:47:16.632Z,63.36
2017-12-13T13:49:43.047Z,60.12
2017-12-13T13:52:09.419Z,62.98
2017-12-13T13:54:35.855Z,63.58
2017-12-13T13:57:02.237Z,63.21
2017-12-13T13:59:28.695Z,63.29
2017-12-13T14:01:55.109Z,63.85
2017-12-13T14:04:21.485Z,64.35
2017-12-13T14:06:47.852Z,65.37
2017-12-13T14:09:14.227Z,64.80
2017-12-13T14:11:40.613Z,63.92
2017-12-13T14:14:06.992Z,63.62
2017-12-13T14:16:33.363Z,65.16
2017-12-13T14:18:59.763Z,65.40
2017-12-13T14:21:26.156Z,64.95
2017-12-13T14:23:52.563Z,64.83
2017-12-13T14:26:19.185Z,66.00
2017-12-13T14:28:45.663Z,66.40
2017-12-13T14:31:12.077Z,66.23
2017-12-13T14:33:38.510Z,65.85
2017-12-13T14:36:04.897Z,66.30
2017-12-13T14:38:31.299Z,66.11
2017-12-13T14:40:57.692Z,66.34
2017-12-13T14:43:24.026Z,66.47
2017-12-13T14:45:50.441Z,66.18
2017-12-13T14:48:17.104Z,65.82
2017-12-13T14:50:43.460Z,67.11
2017-12-13T14:53:09.817Z,66.61
2017-12-13T14:55:36.225Z,67.08
2017-12-13T14:58:02.607Z,67.45
2017-12-13T15:00:28.938Z,67.75
2017-12-13T15:02:55.473Z,67.76
2017-12-13T15:05:21.992Z,68.51
2017-12-13T15:07:48.367Z,67.87
2017-12-13T15:10:14.747Z,67.99
2017-12-13T15:12:41.084Z,68.77
2017-12-13T15:15:07.413Z,68.55
2017-12-13T15:17:33.837Z,68.63
2017-12-13T15:20:00.380Z,68.61
2017-12-13T15:22:27.665Z,68.92
2017-12-13T15:24:54.029Z,68.42
2017-12-13T15:27:20.528Z,68.62
2017-12-13T15:29:46.865Z,67.32
2017-12-13T15:32:13.248Z,68.96
2017-12-13T15:34:39.962Z,69.12
2017-12-13T15:37:06.463Z,69.15
2017-12-13T15:39:33.068Z,69.48
2017-12-13T15:41:59.499Z,69.32
2017-12-13T15:44:25.892Z,68.03
2017-12-13T15:46:52.399Z,68.95
2017-12-13T15:49:18.755Z,69.24
2017-12-13T15:51:45.124Z,65.87
2017-12-13T15:54:11.577Z,65.93
2017-12-13T15:56:39.037Z,66.06
2017-12-13T15:59:05.436Z,67.27
2017-12-13T16:01:33.419Z,69.23
2017-12-13T16:03:59.749Z,69.37
2017-12-13T16:06:27.604Z,70.01
2017-12-13T16:08:54.064Z,69.44
2017-12-13T16:11:20.404Z,70.30
2017-12-13T16:13:46.737Z,70.17
2017-12-13T16:16:13.388Z,68.37
2017-12-13T16:18:40.351Z,65.81
2017-12-13T16:21:06.692Z,64.21
2017-12-13T16:23:33.906Z,64.35
2017-12-13T16:26:00.284Z,65.92
2017-12-13T16:28:27.829Z,67.40
2017-12-13T16:30:54.267Z,69.27
2017-12-13T16:33:20.657Z,68.72
2017-12-13T16:35:47.092Z,70.81
2017-12-13T16:38:15.368Z,70.04
2017-12-13T16:40:41.804Z,69.65
2017-12-13T16:43:08.246Z,64.95
2017-12-13T16:45:34.872Z,65.46
2017-12-13T16:48:01.230Z,69.50
2017-12-13T16:50:27.877Z,69.76
2017-12-13T16:52:54.456Z,67.01
2017-12-13T16:55:20.926Z,64.81
2017-12-13T16:57:47.466Z,65.78
2017-12-13T17:00:14.409Z,69.35
2017-12-13T17:02:41.308Z,70.87
2017-12-13T17:05:07.767Z,71.17
2017-12-13T17:07:34.359Z,71.42
2017-12-13T17:10:00.840Z,71.53
2017-12-13T17:12:27.391Z,71.54
2017-12-13T17:14:53.888Z,71.86
2017-12-13T17:17:20.316Z,72.07
2017-12-13T17:19:46.734Z,72.22
2017-12-13T17:22:13.260Z,72.24
2017-12-13T17:24:39.700Z,72.04
2017-12-13T17:27:06.072Z,71.68
2017-12-13T17:29:32.504Z,71.39
2017-12-13T17:31:58.912Z,71.61
2017-12-13T17:34:26.113Z,71.28
2017-12-13T17:36:52.602Z,69.63
2017-12-13T17:39:18.957Z,71.27
2017-12-13T17:41:45.396Z,71.77
2017-12-13T17:44:11.851Z,71.94
2017-12-13T17:46:38.469Z,72.06
2017-12-13T17:49:04.922Z,72.05
2017-12-13T17:51:31.352Z,71.99
2017-12-13T17:53:58.230Z,72.17
2017-12-13T17:56:24.676Z,72.31
2017-12-13T17:58:51.115Z,72.18
2017-12-13T18:01:17.511Z,71.89
2017-12-13T18:03:44.031Z,72.22
2017-12-13T18:06:10.495Z,72.25
2017-12-13T18:08:36.891Z,72.23
2017-12-13T18:11:03.288Z,72.49
2017-12-13T18:13:29.746Z,72.40
2017-12-13T18:15:56.196Z,69.50
2017-12-13T18:18:22.937Z,71.59
2017-12-13T18:20:49.483Z,71.73
2017-12-13T18:23:15.924Z,71.80
2017-12-13T18:25:42.339Z,71.82
2017-12-13T18:28:08.862Z,71.89
2017-12-13T18:30:35.413Z,72.10
2017-12-13T18:33:01.824Z,72.01
2017-12-13T18:35:28.305Z,72.00
2017-12-13T18:37:54.792Z,71.88
2017-12-13T18:40:21.486Z,71.69
2017-12-13T18:42:47.938Z,71.75
2017-12-13T18:45:14.696Z,71.71
2017-12-13T18:47:41.119Z,71.76
2017-12-13T18:50:07.570Z,71.76
2017-12-13T18:52:33.966Z,71.28
2017-12-13T18:55:00.480Z,71.51
2017-12-13T18:57:27.597Z,71.43
2017-12-13T18:59:54.079Z,71.61
2017-12-13T19:02:20.660Z,71.51
2017-12-13T19:04:47.184Z,71.48
2017-12-13T19:07:13.600Z,71.51
2017-12-13T19:09:40.012Z,71.59
2017-12-13T19:12:06.495Z,71.54
2017-12-13T19:14:32.986Z,71.62
2017-12-13T19:16:59.617Z,71.90
2017-12-13T19:19:26.093Z,72.22
2017-12-13T19:21:53.129Z,72.55
2017-12-13T19:24:20.136Z,72.74
2017-12-13T19:26:47.733Z,72.93
2017-12-13T19:29:14.087Z,72.94
2017-12-13T19:31:40.557Z,72.61
2017-12-13T19:34:07.260Z,71.87
2017-12-13T19:36:33.696Z,72.06
2017-12-13T19:39:00.097Z,71.93
2017-12-13T19:41:26.708Z,71.89
2017-12-13T19:43:53.060Z,72.18
2017-12-13T19:46:19.487Z,72.30
2017-12-13T19:48:45.996Z,72.40
2017-12-13T19:51:12.524Z,72.53
2017-12-13T19:53:38.908Z,72.21
2017-12-13T19:56:05.344Z,72.34
2017-12-13T19:58:31.823Z,72.37
2017-12-13T20:00:58.235Z,72.57
2017-12-13T20:03:24.771Z,72.64
2017-12-13T20:05:51.327Z,72.62
2017-12-13T20:08:18.299Z,72.05
2017-12-13T20:10:44.844Z,72.13
2017-12-13T20:13:11.252Z,72.12
2017-12-13T20:15:37.655Z,72.14
2017-12-13T20:18:04.084Z,71.80
2017-12-13T20:20:30.472Z,72.11
2017-12-13T20:22:57.080Z,72.17
2017-12-13T20:25:23.589Z,72.46
2017-12-13T20:27:49.996Z,72.48
2017-12-13T20:30:16.533Z,71.91
2017-12-13T20:32:42.929Z,72.28
2017-12-13T20:35:09.332Z,70.99
2017-12-13T20:37:35.780Z,71.57
2017-12-13T20:40:02.302Z,71.82
2017-12-13T20:42:28.858Z,71.94
2017-12-13T20:44:55.241Z,72.08
2017-12-13T20:47:21.777Z,72.32
2017-12-13T20:49:49.061Z,72.41
2017-12-13T20:52:15.594Z,72.38
2017-12-13T20:54:42.154Z,71.92
2017-12-13T20:57:08.785Z,72.20
2017-12-13T20:59:35.625Z,72.24
2017-12-13T21:02:02.113Z,72.24
2017-12-13T21:04:28.577Z,72.34
2017-12-13T21:06:54.960Z,72.31
2017-12-13T21:09:21.432Z,72.52
2017-12-13T21:11:47.819Z,72.18
2017-12-13T21:14:14.202Z,72.32
2017-12-13T21:16:40.625Z,72.58
2017-12-13T21:19:07.096Z,72.65
2017-12-13T21:21:33.476Z,72.60
2017-12-13T21:23:59.958Z,72.59
2017-12-13T21:26:26.324Z,72.62
2017-12-13T21:28:52.692Z,72.81
2017-12-13T21:31:19.515Z,73.09
2017-12-13T21:33:45.923Z,72.97
2017-12-13T21:36:12.406Z,73.00
2017-12-13T21:38:38.825Z,73.12
2017-12-13T21:41:05.408Z,73.48
2017-12-13T21:43:31.792Z,72.46
2017-12-13T21:45:58.232Z,71.86
2017-12-13T21:48:24.790Z,72.53
2017-12-13T21:50:51.137Z,71.72
2017-12-13T21:53:17.684Z,72.48
2017-12-13T21:55:44.127Z,71.32
2017-12-13T21:58:10.637Z,72.32
2017-12-13T22:00:37.100Z,71.24
2017-12-13T22:03:03.483Z,72.07
2017-12-13T22:05:30.264Z,72.27
2017-12-13T22:07:56.992Z,70.07
2017-12-13T22:10:23.573Z,71.71
2017-12-13T22:12:50.087Z,72.14
2017-12-13T22:15:16.716Z,72.42
2017-12-13T22:17:43.392Z,72.47
2017-12-13T22:20:09.744Z,72.45
2017-12-13T22:22:36.320Z,71.88
2017-12-13T22:25:02.943Z,72.57
2017-12-13T22:27:29.596Z,72.72
2017-12-13T22:29:56.039Z,72.83
2017-12-13T22:32:22.397Z,72.65
2017-12-13T22:34:48.820Z,72.51
2017-12-13T22:37:15.240Z,72.26
2017-12-13T22:39:41.593Z,71.65
2017-12-13T22:42:08.045Z,72.00
2017-12-13T22:44:34.444Z,72.14
2017-12-13T22:47:00.877Z,72.53
2017-12-13T22:49:27.306Z,72.75
2017-12-13T22:51:53.768Z,72.34
2017-12-13T22:54:20.152Z,72.68
2017-12-13T22:56:46.578Z,72.80
2017-12-13T22:59:13.008Z,72.31
2017-12-13T23:01:39.626Z,72.58
2017-12-13T23:04:06.288Z,72.66
2017-12-13T23:06:32.776Z,72.79
2017-12-13T23:08:59.132Z,72.61
2017-12-13T23:11:25.511Z,73.02
2017-12-13T23:13:52.210Z,73.00
2017-12-13T23:16:18.581Z,72.64
2017-12-13T23:18:44.964Z,72.67
2017-12-13T23:21:11.347Z,73.12
2017-12-13T23:23:37.736Z,73.19
2017-12-13T23:26:04.115Z,73.53
2017-12-13T23:28:30.669Z,73.25
2017-12-13T23:30:57.087Z,73.42
2017-12-13T23:33:23.587Z,73.17
2017-12-13T23:35:50.071Z,72.90
2017-12-13T23:38:16.493Z,73.15
2017-12-13T23:40:42.871Z,73.33
2017-12-13T23:43:09.296Z,73.53
2017-12-13T23:45:35.855Z,72.96
2017-12-13T23:48:02.257Z,73.51
2017-12-13T23:50:28.728Z,73.92
2017-12-13T23:52:55.130Z,73.99
2017-12-13T23:55:21.612Z,72.57
2017-12-13T23:57:48.124Z,72.53
